createdAt,value
2019-04-29T00:04:36.948Z,13.67
2019-04-29T00:10:00.598Z,13.45
2019-04-29T00:15:37.054Z,13.40
2019-04-29T00:20:58.597Z,13.26
2019-04-29T00:26:20.371Z,13.23
2019-04-29T00:31:42.659Z,13.09
2019-04-29T00:37:15.307Z,12.94
2019-04-29T00:43:05.103Z,12.99
2019-04-29T00:48:27.012Z,12.95
2019-04-29T00:53:50.619Z,13.01
2019-04-29T00:59:12.503Z,13.09
2019-04-29T01:04:34.278Z,13.09
2019-04-29T01:09:55.627Z,12.64
2019-04-29T01:15:17.321Z,12.58
2019-04-29T01:20:38.970Z,12.48
2019-04-29T01:26:05.325Z,12.60
2019-04-29T01:31:31.344Z,12.66
2019-04-29T01:36:52.892Z,12.61
2019-04-29T01:42:21.287Z,12.42
2019-04-29T01:47:42.672Z,12.28
2019-04-29T01:53:04.465Z,12.26
2019-04-29T01:58:26.415Z,12.38
2019-04-29T02:03:48.249Z,12.47
2019-04-29T02:09:14.778Z,12.35
2019-04-29T02:14:36.559Z,12.30
2019-04-29T02:19:58.428Z,12.41
2019-04-29T02:25:25.395Z,12.40
2019-04-29T02:30:48.614Z,12.48
2019-04-29T02:36:10.333Z,12.39
2019-04-29T02:41:48.433Z,12.17
2019-04-29T02:47:10.188Z,12.10
2019-04-29T02:52:32.131Z,11.98
2019-04-29T02:58:03.116Z,11.94
2019-04-29T03:03:32.510Z,11.88
2019-04-29T03:08:54.259Z,11.84
2019-04-29T03:14:16.105Z,11.93
2019-04-29T03:19:39.662Z,11.96
2019-04-29T03:25:01.677Z,11.91
2019-04-29T03:30:23.621Z,11.79
2019-04-29T03:35:45.118Z,11.84
2019-04-29T03:41:06.673Z,11.83
2019-04-29T03:46:28.217Z,11.73
2019-04-29T03:51:49.953Z,11.67
2019-04-29T03:57:13.370Z,11.85
2019-04-29T04:02:44.901Z,11.90
2019-04-29T04:08:16.485Z,11.91
2019-04-29T04:13:38.096Z,12.03
2019-04-29T04:19:07.344Z,12.09
2019-04-29T04:24:28.994Z,12.34
2019-04-29T04:29:51.138Z,12.58
2019-04-29T04:35:13.479Z,12.78
2019-04-29T04:40:39.766Z,13.02
2019-04-29T04:46:01.718Z,13.19
2019-04-29T04:51:23.303Z,13.06
2019-04-29T04:56:44.858Z,13.20
2019-04-29T05:02:06.556Z,13.39
2019-04-29T05:07:28.126Z,13.60
2019-04-29T05:12:49.822Z,13.75
2019-04-29T05:18:11.483Z,14.10
2019-04-29T05:23:33.415Z,14.59
2019-04-29T05:28:55.298Z,14.70
2019-04-29T05:34:19.442Z,15.00
2019-04-29T05:39:41.932Z,15.29
2019-04-29T05:45:18.421Z,15.46
2019-04-29T05:51:02.183Z,15.95
2019-04-29T05:56:23.807Z,16.35
2019-04-29T06:01:47.164Z,16.65
2019-04-29T06:07:09.546Z,17.06
2019-04-29T06:12:31.234Z,17.27
2019-04-29T06:17:53.339Z,17.43
2019-04-29T06:23:14.976Z,17.48
2019-04-29T06:28:36.500Z,18.00
2019-04-29T06:34:00.567Z,18.36
2019-04-29T06:39:21.745Z,18.33
2019-04-29T06:44:44.358Z,18.56
2019-04-29T06:50:07.625Z,18.68
2019-04-29T06:55:29.478Z,18.48
2019-04-29T07:00:55.929Z,18.32
2019-04-29T07:06:15.002Z,18.30
2019-04-29T07:11:38.279Z,18.34
2019-04-29T07:17:00.777Z,18.97
2019-04-29T07:22:25.844Z,18.94
2019-04-29T07:27:47.689Z,19.12
2019-04-29T07:33:09.346Z,19.53
2019-04-29T07:38:41.068Z,19.72
2019-04-29T07:43:55.261Z,19.87
2019-04-29T07:49:18.801Z,19.45
2019-04-29T07:54:41.632Z,19.73
2019-04-29T08:00:03.562Z,19.88
2019-04-29T08:05:25.282Z,19.87
2019-04-29T08:10:55.991Z,19.92
2019-04-29T08:16:12.647Z,20.06
2019-04-29T08:21:34.331Z,20.14
2019-04-29T08:26:56.028Z,19.89
2019-04-29T08:32:17.767Z,20.08
2019-04-29T08:37:40.013Z,20.56
2019-04-29T08:43:20.693Z,20.81
2019-04-29T08:48:40.022Z,20.91
2019-04-29T08:54:01.924Z,21.04
2019-04-29T08:59:24.415Z,21.47
2019-04-29T09:04:53.373Z,21.18
2019-04-29T09:10:10.636Z,21.45
2019-04-29T09:15:32.150Z,21.84
2019-04-29T09:20:53.727Z,22.03
2019-04-29T09:26:28.455Z,22.39
2019-04-29T09:31:50.160Z,22.29
2019-04-29T09:37:12.212Z,22.38
2019-04-29T09:42:50.230Z,22.57
2019-04-29T09:48:11.309Z,22.01
2019-04-29T09:53:32.882Z,22.27
2019-04-29T09:59:14.090Z,22.34
2019-04-29T10:04:55.559Z,22.01
2019-04-29T10:10:07.830Z,21.75
2019-04-29T10:15:38.359Z,22.37
2019-04-29T10:21:06.630Z,22.31
2019-04-29T10:26:28.569Z,22.08
2019-04-29T10:31:50.523Z,22.57
2019-04-29T10:37:12.713Z,21.97
2019-04-29T10:42:40.844Z,21.70
2019-04-29T10:48:21.972Z,21.85
2019-04-29T10:53:46.663Z,22.55
2019-04-29T10:59:09.150Z,22.40
2019-04-29T11:04:36.342Z,22.53
2019-04-29T11:10:01.385Z,22.47
2019-04-29T11:15:28.825Z,22.66
2019-04-29T11:20:53.676Z,23.01
2019-04-29T11:26:28.607Z,22.90
2019-04-29T11:31:54.179Z,23.02
2019-04-29T11:37:19.459Z,23.20
2019-04-29T11:42:41.938Z,23.29
2019-04-29T11:48:03.981Z,23.59
2019-04-29T11:53:26.141Z,23.79
2019-04-29T11:59:06.852Z,23.87
2019-04-29T12:04:34.668Z,24.13
2019-04-29T12:09:56.747Z,24.02
2019-04-29T12:15:45.045Z,23.83
2019-04-29T12:21:11.815Z,24.21
2019-04-29T12:26:35.628Z,23.85
2019-04-29T12:32:14.626Z,23.77
2019-04-29T12:37:54.587Z,23.79
2019-04-29T12:43:54.027Z,23.76
2019-04-29T12:49:15.338Z,24.12
2019-04-29T12:54:36.893Z,23.92
2019-04-29T12:59:58.841Z,24.22
2019-04-29T13:05:40.476Z,24.12
2019-04-29T13:11:03.939Z,23.78
2019-04-29T13:16:55.814Z,23.99
2019-04-29T13:22:17.278Z,24.32
2019-04-29T13:27:39.608Z,24.45
2019-04-29T13:33:06.283Z,25.22
2019-04-29T13:38:25.671Z,25.48
2019-04-29T13:43:47.421Z,25.22
2019-04-29T13:49:32.301Z,25.02
2019-04-29T13:54:54.127Z,24.72
2019-04-29T14:00:36.366Z,24.62
2019-04-29T14:06:04.192Z,24.08
2019-04-29T14:11:26.052Z,24.03
2019-04-29T14:16:47.609Z,24.24
2019-04-29T14:22:21.600Z,24.16
2019-04-29T14:27:33.688Z,24.54
2019-04-29T14:33:01.747Z,24.65
2019-04-29T14:38:24.221Z,24.87
2019-04-29T14:44:12.793Z,25.79
2019-04-29T14:49:39.761Z,26.36
2019-04-29T14:55:01.978Z,27.21
2019-04-29T15:00:36.164Z,27.11
2019-04-29T15:05:58.339Z,25.92
2019-04-29T15:11:31.515Z,25.32
2019-04-29T15:16:50.248Z,25.02
2019-04-29T15:22:12.363Z,24.35
2019-04-29T15:27:33.894Z,23.88
2019-04-29T15:32:58.050Z,23.37
2019-04-29T15:38:19.016Z,23.21
2019-04-29T15:43:47.223Z,23.45
2019-04-29T15:49:05.094Z,23.50
2019-04-29T15:54:26.931Z,23.20
2019-04-29T15:59:53.883Z,22.36
2019-04-29T16:05:34.284Z,22.25
2019-04-29T16:11:15.050Z,21.74
2019-04-29T16:16:37.026Z,21.33
2019-04-29T16:21:58.819Z,20.98
2019-04-29T16:27:20.306Z,20.88
2019-04-29T16:32:42.143Z,20.85
2019-04-29T16:38:11.546Z,20.87
2019-04-29T16:43:34.232Z,20.74
2019-04-29T16:48:56.192Z,20.66
2019-04-29T16:54:20.440Z,20.37
2019-04-29T16:59:43.033Z,20.13
2019-04-29T17:05:05.496Z,20.08
2019-04-29T17:10:52.549Z,19.52
2019-04-29T17:16:16.376Z,19.27
2019-04-29T17:21:38.093Z,18.94
2019-04-29T17:27:08.105Z,18.80
2019-04-29T17:32:44.396Z,18.61
2019-04-29T17:38:04.787Z,18.44
2019-04-29T17:44:01.057Z,18.44
2019-04-29T17:49:44.946Z,18.41
2019-04-29T17:55:15.212Z,18.28
2019-04-29T18:00:59.589Z,18.19
2019-04-29T18:06:28.369Z,18.19
2019-04-29T18:11:55.637Z,18.08
2019-04-29T18:17:27.242Z,18.06
2019-04-29T18:23:00.451Z,17.88
2019-04-29T18:28:22.707Z,17.88
2019-04-29T18:33:45.162Z,17.76
2019-04-29T18:39:09.563Z,17.69
2019-04-29T18:44:32.167Z,17.60
2019-04-29T18:49:53.863Z,17.48
2019-04-29T18:55:15.401Z,17.38
2019-04-29T19:00:37.569Z,17.20
2019-04-29T19:06:03.269Z,17.04
2019-04-29T19:11:30.570Z,16.77
2019-04-29T19:16:47.452Z,16.68
2019-04-29T19:22:09.578Z,16.43
2019-04-29T19:27:37.113Z,16.40
2019-04-29T19:33:00.244Z,16.30
2019-04-29T19:38:18.872Z,16.09
2019-04-29T19:43:40.728Z,15.93
2019-04-29T19:49:08.063Z,15.73
2019-04-29T19:54:28.535Z,15.63
2019-04-29T19:59:51.595Z,15.54
2019-04-29T20:05:23.890Z,15.42
2019-04-29T20:10:52.471Z,15.25
2019-04-29T20:16:43.740Z,15.01
2019-04-29T20:22:07.551Z,14.94
2019-04-29T20:27:30.976Z,14.83
2019-04-29T20:32:56.052Z,14.55
2019-04-29T20:38:18.520Z,14.21
2019-04-29T20:43:40.570Z,14.00
2019-04-29T20:49:02.595Z,13.71
2019-04-29T20:54:26.995Z,13.51
2019-04-29T20:59:50.436Z,13.35
2019-04-29T21:05:19.789Z,13.23
2019-04-29T21:10:37.926Z,13.09
2019-04-29T21:16:15.165Z,13.05
2019-04-29T21:21:41.830Z,13.01
2019-04-29T21:27:00.830Z,12.97
2019-04-29T21:32:22.515Z,12.84
2019-04-29T21:38:00.369Z,12.86
2019-04-29T21:43:26.085Z,12.80
2019-04-29T21:48:48.014Z,12.82
2019-04-29T21:54:13.708Z,12.83
2019-04-29T21:59:33.170Z,12.85
2019-04-29T22:04:55.178Z,12.94
2019-04-29T22:10:19.829Z,12.87
2019-04-29T22:15:42.411Z,12.81
2019-04-29T22:21:06.557Z,12.76
2019-04-29T22:26:28.147Z,12.75
2019-04-29T22:31:49.983Z,12.64
2019-04-29T22:37:11.915Z,12.58
2019-04-29T22:42:41.717Z,12.49
2019-04-29T22:48:14.261Z,12.28
2019-04-29T22:53:27.335Z,12.31
2019-04-29T22:58:49.275Z,12.30
2019-04-29T23:04:14.531Z,12.23
2019-04-29T23:09:36.625Z,12.28
2019-04-29T23:14:58.545Z,12.24
2019-04-29T23:20:46.678Z,12.12
2019-04-29T23:26:08.714Z,12.06
2019-04-29T23:31:30.857Z,11.98
2019-04-29T23:36:52.807Z,12.01
2019-04-29T23:42:16.215Z,11.90
2019-04-29T23:47:41.877Z,11.79
2019-04-29T23:53:01.622Z,11.86
2019-04-29T23:58:32.643Z,11.70
